sensor_id;sensor_type;location;lat;lon;timestamp;P1;durP1;ratioP1;P2;durP2;ratioP2
37885;SDS011;23726;52.520;13.434;2022-11-11T00:01:04;8.85;;;5.65;;
37885;SDS011;23726;52.520;13.434;2022-11-11T00:03:31;8.93;;;4.80;;
37885;SDS011;23726;52.520;13.434;2022-11-11T00:06:01;6.43;;;4.47;;
37885;SDS011;23726;52.520;13.434;2022-11-11T00:11:02;8.73;;;5.00;;
37885;SDS011;23726;52.520;13.434;2022-11-11T00:13:30;9.23;;;4.72;;
37885;SDS011;23726;52.520;13.434;2022-11-11T00:15:56;7.22;;;4.90;;
37885;SDS011;23726;52.520;13.434;2022-11-11T00:18:48;8.30;;;4.40;;
37885;SDS011;23726;52.520;13.434;2022-11-11T00:21:32;8.02;;;4.55;;
37885;SDS011;23726;52.520;13.434;2022-11-11T00:24:00;7.82;;;4.95;;
37885;SDS011;23726;52.520;13.434;2022-11-11T00:26:46;7.05;;;4.88;;
37885;SDS011;23726;52.520;13.434;2022-11-11T00:29:15;7.03;;;4.47;;
37885;SDS011;23726;52.520;13.434;2022-11-11T00:31:40;7.35;;;4.68;;
37885;SDS011;23726;52.520;13.434;2022-11-11T00:34:25;9.40;;;5.03;;
37885;SDS011;23726;52.520;13.434;2022-11-11T00:36:50;6.97;;;4.57;;
37885;SDS011;23726;52.520;13.434;2022-11-11T00:39:16;8.73;;;4.70;;
37885;SDS011;23726;52.520;13.434;2022-11-11T00:41:42;8.10;;;4.97;;
37885;SDS011;23726;52.520;13.434;2022-11-11T00:44:07;6.88;;;4.55;;
37885;SDS011;23726;52.520;13.434;2022-11-11T00:46:33;7.78;;;5.03;;
37885;SDS011;23726;52.520;13.434;2022-11-11T00:49:18;8.75;;;5.22;;
37885;SDS011;23726;52.520;13.434;2022-11-11T00:52:02;7.00;;;4.90;;
37885;SDS011;23726;52.520;13.434;2022-11-11T00:54:27;8.95;;;4.75;;
37885;SDS011;23726;52.520;13.434;2022-11-11T00:56:56;8.80;;;4.93;;
37885;SDS011;23726;52.520;13.434;2022-11-11T00:59:22;7.88;;;4.57;;
37885;SDS011;23726;52.520;13.434;2022-11-11T01:01:47;6.60;;;4.50;;
37885;SDS011;23726;52.520;13.434;2022-11-11T01:04:14;7.25;;;4.88;;
37885;SDS011;23726;52.520;13.434;2022-11-11T01:06:40;6.85;;;4.60;;
37885;SDS011;23726;52.520;13.434;2022-11-11T01:09:05;7.50;;;4.68;;
37885;SDS011;23726;52.520;13.434;2022-11-11T01:11:32;7.10;;;4.82;;
37885;SDS011;23726;52.520;13.434;2022-11-11T01:13:58;8.40;;;4.88;;
37885;SDS011;23726;52.520;13.434;2022-11-11T01:16:24;7.93;;;4.88;;
37885;SDS011;23726;52.520;13.434;2022-11-11T01:18:51;12.40;;;5.45;;
37885;SDS011;23726;52.520;13.434;2022-11-11T01:21:21;8.50;;;4.88;;
37885;SDS011;23726;52.520;13.434;2022-11-11T01:23:49;9.25;;;4.75;;
37885;SDS011;23726;52.520;13.434;2022-11-11T01:28:43;6.00;;;4.57;;
37885;SDS011;23726;52.520;13.434;2022-11-11T01:31:11;6.22;;;4.70;;
37885;SDS011;23726;52.520;13.434;2022-11-11T01:33:37;9.27;;;5.25;;
37885;SDS011;23726;52.520;13.434;2022-11-11T01:36:04;7.60;;;4.53;;
37885;SDS011;23726;52.520;13.434;2022-11-11T01:38:30;6.05;;;4.95;;
37885;SDS011;23726;52.520;13.434;2022-11-11T01:40:56;8.88;;;5.22;;
37885;SDS011;23726;52.520;13.434;2022-11-11T01:43:22;9.23;;;5.13;;
37885;SDS011;23726;52.520;13.434;2022-11-11T01:45:53;8.27;;;5.00;;
37885;SDS011;23726;52.520;13.434;2022-11-11T01:48:38;7.18;;;4.95;;
37885;SDS011;23726;52.520;13.434;2022-11-11T01:51:35;7.63;;;5.10;;
37885;SDS011;23726;52.520;13.434;2022-11-11T01:54:07;8.57;;;4.60;;
37885;SDS011;23726;52.520;13.434;2022-11-11T01:56:37;6.85;;;5.07;;
37885;SDS011;23726;52.520;13.434;2022-11-11T01:59:06;7.22;;;4.80;;
37885;SDS011;23726;52.520;13.434;2022-11-11T02:01:35;5.35;;;4.57;;
37885;SDS011;23726;52.520;13.434;2022-11-11T02:04:01;7.07;;;4.70;;
37885;SDS011;23726;52.520;13.434;2022-11-11T02:06:48;6.75;;;4.30;;
37885;SDS011;23726;52.520;13.434;2022-11-11T02:09:17;8.45;;;5.05;;
37885;SDS011;23726;52.520;13.434;2022-11-11T02:11:45;6.88;;;4.30;;
37885;SDS011;23726;52.520;13.434;2022-11-11T02:14:29;11.15;;;4.82;;
37885;SDS011;23726;52.520;13.434;2022-11-11T02:17:04;8.00;;;4.93;;
37885;SDS011;23726;52.520;13.434;2022-11-11T02:22:11;6.65;;;4.60;;
37885;SDS011;23726;52.520;13.434;2022-11-11T02:24:42;7.25;;;4.35;;
37885;SDS011;23726;52.520;13.434;2022-11-11T02:27:10;7.97;;;4.60;;
37885;SDS011;23726;52.520;13.434;2022-11-11T02:29:39;5.78;;;4.25;;
37885;SDS011;23726;52.520;13.434;2022-11-11T02:32:06;6.85;;;4.22;;
37885;SDS011;23726;52.520;13.434;2022-11-11T02:34:32;8.02;;;5.20;;
37885;SDS011;23726;52.520;13.434;2022-11-11T02:37:00;6.57;;;4.72;;
37885;SDS011;23726;52.520;13.434;2022-11-11T02:39:28;9.07;;;5.15;;
37885;SDS011;23726;52.520;13.434;2022-11-11T02:41:54;6.72;;;4.85;;
37885;SDS011;23726;52.520;13.434;2022-11-11T02:44:23;6.30;;;4.20;;
37885;SDS011;23726;52.520;13.434;2022-11-11T02:46:50;8.90;;;4.43;;
37885;SDS011;23726;52.520;13.434;2022-11-11T02:49:16;8.88;;;4.53;;
37885;SDS011;23726;52.520;13.434;2022-11-11T02:51:43;8.02;;;5.03;;
37885;SDS011;23726;52.520;13.434;2022-11-11T02:54:09;6.15;;;4.70;;
37885;SDS011;23726;52.520;13.434;2022-11-11T02:56:35;6.10;;;4.28;;
37885;SDS011;23726;52.520;13.434;2022-11-11T02:59:19;4.57;;;4.07;;
37885;SDS011;23726;52.520;13.434;2022-11-11T03:01:48;6.95;;;4.90;;
37885;SDS011;23726;52.520;13.434;2022-11-11T03:04:13;6.18;;;4.43;;
37885;SDS011;23726;52.520;13.434;2022-11-11T03:06:39;7.78;;;4.78;;
37885;SDS011;23726;52.520;13.434;2022-11-11T03:09:05;6.70;;;5.00;;
37885;SDS011;23726;52.520;13.434;2022-11-11T03:11:31;5.63;;;4.53;;
37885;SDS011;23726;52.520;13.434;2022-11-11T03:13:58;6.40;;;4.55;;
37885;SDS011;23726;52.520;13.434;2022-11-11T03:16:24;6.03;;;4.47;;
37885;SDS011;23726;52.520;13.434;2022-11-11T03:19:09;7.60;;;5.00;;
37885;SDS011;23726;52.520;13.434;2022-11-11T03:21:36;7.28;;;4.40;;
37885;SDS011;23726;52.520;13.434;2022-11-11T03:24:02;7.60;;;4.70;;
37885;SDS011;23726;52.520;13.434;2022-11-11T03:26:27;7.28;;;4.93;;
37885;SDS011;23726;52.520;13.434;2022-11-11T03:28:54;7.50;;;4.97;;
37885;SDS011;23726;52.520;13.434;2022-11-11T03:31:20;7.05;;;4.63;;
37885;SDS011;23726;52.520;13.434;2022-11-11T03:33:45;6.22;;;4.60;;
37885;SDS011;23726;52.520;13.434;2022-11-11T03:36:11;7.78;;;4.85;;
37885;SDS011;23726;52.520;13.434;2022-11-11T03:38:37;7.40;;;4.72;;
37885;SDS011;23726;52.520;13.434;2022-11-11T03:41:02;5.65;;;4.68;;
37885;SDS011;23726;52.520;13.434;2022-11-11T03:43:29;6.43;;;4.60;;
37885;SDS011;23726;52.520;13.434;2022-11-11T03:45:57;6.25;;;5.05;;
37885;SDS011;23726;52.520;13.434;2022-11-11T03:48:27;7.05;;;4.60;;
37885;SDS011;23726;52.520;13.434;2022-11-11T03:50:54;5.35;;;4.55;;
37885;SDS011;23726;52.520;13.434;2022-11-11T03:53:20;6.53;;;5.05;;
37885;SDS011;23726;52.520;13.434;2022-11-11T03:55:47;6.50;;;4.80;;
37885;SDS011;23726;52.520;13.434;2022-11-11T03:58:13;7.60;;;5.05;;
37885;SDS011;23726;52.520;13.434;2022-11-11T04:00:40;5.78;;;4.50;;
37885;SDS011;23726;52.520;13.434;2022-11-11T04:03:07;7.72;;;4.97;;
37885;SDS011;23726;52.520;13.434;2022-11-11T04:05:53;6.55;;;4.45;;
37885;SDS011;23726;52.520;13.434;2022-11-11T04:08:39;5.53;;;4.50;;
37885;SDS011;23726;52.520;13.434;2022-11-11T04:11:27;6.95;;;4.80;;
37885;SDS011;23726;52.520;13.434;2022-11-11T04:14:05;6.80;;;5.18;;
37885;SDS011;23726;52.520;13.434;2022-11-11T04:16:52;8.85;;;4.63;;
37885;SDS011;23726;52.520;13.434;2022-11-11T04:19:17;6.60;;;4.47;;
37885;SDS011;23726;52.520;13.434;2022-11-11T04:22:02;8.73;;;4.68;;
37885;SDS011;23726;52.520;13.434;2022-11-11T04:24:28;8.00;;;5.75;;
37885;SDS011;23726;52.520;13.434;2022-11-11T04:27:14;7.47;;;4.78;;
37885;SDS011;23726;52.520;13.434;2022-11-11T04:29:41;4.78;;;4.10;;
37885;SDS011;23726;52.520;13.434;2022-11-11T04:34:52;5.80;;;4.70;;
37885;SDS011;23726;52.520;13.434;2022-11-11T04:37:20;6.63;;;4.97;;
37885;SDS011;23726;52.520;13.434;2022-11-11T04:39:47;6.63;;;4.93;;
37885;SDS011;23726;52.520;13.434;2022-11-11T04:42:32;6.00;;;4.95;;
37885;SDS011;23726;52.520;13.434;2022-11-11T04:44:59;5.82;;;4.63;;
37885;SDS011;23726;52.520;13.434;2022-11-11T04:47:55;6.20;;;4.43;;
37885;SDS011;23726;52.520;13.434;2022-11-11T04:50:33;5.43;;;4.47;;
37885;SDS011;23726;52.520;13.434;2022-11-11T04:53:01;7.63;;;4.80;;
37885;SDS011;23726;52.520;13.434;2022-11-11T04:55:28;6.38;;;4.82;;
37885;SDS011;23726;52.520;13.434;2022-11-11T04:58:14;6.68;;;4.43;;
37885;SDS011;23726;52.520;13.434;2022-11-11T05:00:40;8.10;;;4.43;;
37885;SDS011;23726;52.520;13.434;2022-11-11T05:03:08;5.88;;;4.40;;
37885;SDS011;23726;52.520;13.434;2022-11-11T05:05:57;7.22;;;4.85;;
37885;SDS011;23726;52.520;13.434;2022-11-11T05:08:48;7.43;;;4.75;;
37885;SDS011;23726;52.520;13.434;2022-11-11T05:11:20;7.22;;;5.20;;
37885;SDS011;23726;52.520;13.434;2022-11-11T05:13:51;7.40;;;4.90;;
37885;SDS011;23726;52.520;13.434;2022-11-11T05:16:38;6.03;;;4.35;;
37885;SDS011;23726;52.520;13.434;2022-11-11T05:19:26;7.07;;;4.68;;
37885;SDS011;23726;52.520;13.434;2022-11-11T05:24:59;7.82;;;4.72;;
37885;SDS011;23726;52.520;13.434;2022-11-11T05:27:44;6.78;;;4.75;;
37885;SDS011;23726;52.520;13.434;2022-11-11T05:30:11;9.02;;;4.80;;
37885;SDS011;23726;52.520;13.434;2022-11-11T05:32:38;6.97;;;4.40;;
37885;SDS011;23726;52.520;13.434;2022-11-11T05:35:04;6.40;;;4.28;;
37885;SDS011;23726;52.520;13.434;2022-11-11T05:37:32;8.38;;;4.88;;
37885;SDS011;23726;52.520;13.434;2022-11-11T05:39:57;7.82;;;5.35;;
37885;SDS011;23726;52.520;13.434;2022-11-11T05:42:23;6.95;;;4.60;;
37885;SDS011;23726;52.520;13.434;2022-11-11T05:44:48;7.10;;;4.63;;
37885;SDS011;23726;52.520;13.434;2022-11-11T05:47:14;8.18;;;5.25;;
37885;SDS011;23726;52.520;13.434;2022-11-11T05:49:40;5.80;;;4.43;;
37885;SDS011;23726;52.520;13.434;2022-11-11T05:52:06;5.85;;;4.40;;
37885;SDS011;23726;52.520;13.434;2022-11-11T05:54:34;6.50;;;4.78;;
37885;SDS011;23726;52.520;13.434;2022-11-11T05:57:00;7.90;;;5.30;;
37885;SDS011;23726;52.520;13.434;2022-11-11T05:59:26;6.20;;;4.95;;
37885;SDS011;23726;52.520;13.434;2022-11-11T06:01:51;6.20;;;4.43;;
37885;SDS011;23726;52.520;13.434;2022-11-11T06:04:17;7.07;;;4.80;;
37885;SDS011;23726;52.520;13.434;2022-11-11T06:06:43;7.05;;;4.80;;
37885;SDS011;23726;52.520;13.434;2022-11-11T06:09:09;6.13;;;4.97;;
37885;SDS011;23726;52.520;13.434;2022-11-11T06:11:35;7.25;;;4.90;;
37885;SDS011;23726;52.520;13.434;2022-11-11T06:14:00;6.95;;;4.95;;
37885;SDS011;23726;52.520;13.434;2022-11-11T06:16:26;8.32;;;5.32;;
37885;SDS011;23726;52.520;13.434;2022-11-11T06:18:52;7.18;;;5.20;;
37885;SDS011;23726;52.520;13.434;2022-11-11T06:21:18;9.20;;;5.50;;
37885;SDS011;23726;52.520;13.434;2022-11-11T06:23:44;7.05;;;5.07;;
37885;SDS011;23726;52.520;13.434;2022-11-11T06:26:12;6.75;;;5.22;;
37885;SDS011;23726;52.520;13.434;2022-11-11T06:31:04;6.05;;;4.82;;
37885;SDS011;23726;52.520;13.434;2022-11-11T06:33:31;7.25;;;5.03;;
37885;SDS011;23726;52.520;13.434;2022-11-11T06:35:58;6.20;;;5.03;;
37885;SDS011;23726;52.520;13.434;2022-11-11T06:38:24;6.95;;;5.50;;
37885;SDS011;23726;52.520;13.434;2022-11-11T06:40:49;9.25;;;5.55;;
37885;SDS011;23726;52.520;13.434;2022-11-11T06:43:15;6.38;;;4.55;;
37885;SDS011;23726;52.520;13.434;2022-11-11T06:45:41;7.03;;;5.65;;
37885;SDS011;23726;52.520;13.434;2022-11-11T06:48:06;6.35;;;5.00;;
37885;SDS011;23726;52.520;13.434;2022-11-11T06:50:33;8.52;;;5.50;;
37885;SDS011;23726;52.520;13.434;2022-11-11T06:53:03;8.30;;;5.20;;
37885;SDS011;23726;52.520;13.434;2022-11-11T06:55:31;8.30;;;5.45;;
37885;SDS011;23726;52.520;13.434;2022-11-11T06:58:09;8.57;;;5.63;;
37885;SDS011;23726;52.520;13.434;2022-11-11T07:00:37;9.07;;;5.53;;
37885;SDS011;23726;52.520;13.434;2022-11-11T07:03:04;7.15;;;5.43;;
37885;SDS011;23726;52.520;13.434;2022-11-11T07:05:31;7.50;;;5.10;;
37885;SDS011;23726;52.520;13.434;2022-11-11T07:08:04;7.35;;;5.55;;
37885;SDS011;23726;52.520;13.434;2022-11-11T07:10:32;7.20;;;5.78;;
37885;SDS011;23726;52.520;13.434;2022-11-11T07:12:59;10.07;;;6.00;;
37885;SDS011;23726;52.520;13.434;2022-11-11T07:15:25;8.98;;;5.82;;
37885;SDS011;23726;52.520;13.434;2022-11-11T07:17:51;8.00;;;6.07;;
37885;SDS011;23726;52.520;13.434;2022-11-11T07:20:17;8.52;;;5.43;;
37885;SDS011;23726;52.520;13.434;2022-11-11T07:22:44;6.45;;;4.97;;
37885;SDS011;23726;52.520;13.434;2022-11-11T07:25:09;7.18;;;5.55;;
37885;SDS011;23726;52.520;13.434;2022-11-11T07:27:36;6.65;;;4.90;;
37885;SDS011;23726;52.520;13.434;2022-11-11T07:30:04;7.78;;;5.63;;
37885;SDS011;23726;52.520;13.434;2022-11-11T07:32:30;7.53;;;5.43;;
37885;SDS011;23726;52.520;13.434;2022-11-11T07:34:56;7.25;;;5.43;;
37885;SDS011;23726;52.520;13.434;2022-11-11T07:37:22;8.98;;;6.22;;
37885;SDS011;23726;52.520;13.434;2022-11-11T07:39:48;8.13;;;6.00;;
37885;SDS011;23726;52.520;13.434;2022-11-11T07:42:13;8.55;;;5.60;;
37885;SDS011;23726;52.520;13.434;2022-11-11T07:44:39;7.53;;;6.00;;
37885;SDS011;23726;52.520;13.434;2022-11-11T07:47:05;6.95;;;5.28;;
37885;SDS011;23726;52.520;13.434;2022-11-11T07:49:31;7.97;;;5.72;;
37885;SDS011;23726;52.520;13.434;2022-11-11T07:51:56;8.05;;;5.68;;
37885;SDS011;23726;52.520;13.434;2022-11-11T07:54:22;8.85;;;5.97;;
37885;SDS011;23726;52.520;13.434;2022-11-11T07:56:48;6.78;;;5.55;;
37885;SDS011;23726;52.520;13.434;2022-11-11T07:59:13;9.32;;;5.97;;
37885;SDS011;23726;52.520;13.434;2022-11-11T08:01:39;9.85;;;5.55;;
37885;SDS011;23726;52.520;13.434;2022-11-11T08:04:05;7.72;;;5.68;;
37885;SDS011;23726;52.520;13.434;2022-11-11T08:06:31;9.65;;;6.35;;
37885;SDS011;23726;52.520;13.434;2022-11-11T08:08:56;8.55;;;5.60;;
37885;SDS011;23726;52.520;13.434;2022-11-11T08:11:22;7.80;;;5.75;;
37885;SDS011;23726;52.520;13.434;2022-11-11T08:14:06;9.02;;;5.88;;
37885;SDS011;23726;52.520;13.434;2022-11-11T08:16:33;8.05;;;6.00;;
37885;SDS011;23726;52.520;13.434;2022-11-11T08:18:59;10.35;;;5.97;;
37885;SDS011;23726;52.520;13.434;2022-11-11T08:21:25;8.40;;;5.90;;
37885;SDS011;23726;52.520;13.434;2022-11-11T08:23:51;10.15;;;6.38;;
37885;SDS011;23726;52.520;13.434;2022-11-11T08:26:17;8.07;;;6.15;;
37885;SDS011;23726;52.520;13.434;2022-11-11T08:28:43;8.30;;;6.18;;
37885;SDS011;23726;52.520;13.434;2022-11-11T08:31:09;9.90;;;6.35;;
37885;SDS011;23726;52.520;13.434;2022-11-11T08:33:35;9.95;;;6.10;;
37885;SDS011;23726;52.520;13.434;2022-11-11T08:36:02;7.85;;;6.00;;
37885;SDS011;23726;52.520;13.434;2022-11-11T08:38:30;8.75;;;6.20;;
37885;SDS011;23726;52.520;13.434;2022-11-11T08:40:59;8.40;;;5.63;;
37885;SDS011;23726;52.520;13.434;2022-11-11T08:43:26;8.85;;;5.80;;
37885;SDS011;23726;52.520;13.434;2022-11-11T08:45:52;8.60;;;5.68;;
37885;SDS011;23726;52.520;13.434;2022-11-11T08:48:18;8.18;;;5.80;;
37885;SDS011;23726;52.520;13.434;2022-11-11T08:50:44;10.55;;;6.25;;
37885;SDS011;23726;52.520;13.434;2022-11-11T08:53:10;8.75;;;6.10;;
37885;SDS011;23726;52.520;13.434;2022-11-11T08:55:36;7.57;;;5.43;;
37885;SDS011;23726;52.520;13.434;2022-11-11T08:58:04;11.98;;;5.72;;
37885;SDS011;23726;52.520;13.434;2022-11-11T09:00:31;7.13;;;4.97;;
37885;SDS011;23726;52.520;13.434;2022-11-11T09:03:01;9.50;;;5.68;;
37885;SDS011;23726;52.520;13.434;2022-11-11T09:05:29;8.25;;;5.55;;
37885;SDS011;23726;52.520;13.434;2022-11-11T09:07:54;7.55;;;5.65;;
37885;SDS011;23726;52.520;13.434;2022-11-11T09:10:20;8.60;;;5.40;;
37885;SDS011;23726;52.520;13.434;2022-11-11T09:12:45;8.68;;;5.32;;
37885;SDS011;23726;52.520;13.434;2022-11-11T09:15:11;8.80;;;5.50;;
37885;SDS011;23726;52.520;13.434;2022-11-11T09:17:37;7.20;;;5.07;;
37885;SDS011;23726;52.520;13.434;2022-11-11T09:20:03;9.15;;;4.97;;
37885;SDS011;23726;52.520;13.434;2022-11-11T09:22:31;8.38;;;4.90;;
37885;SDS011;23726;52.520;13.434;2022-11-11T09:24:57;6.38;;;4.78;;
37885;SDS011;23726;52.520;13.434;2022-11-11T09:27:22;7.47;;;4.50;;
37885;SDS011;23726;52.520;13.434;2022-11-11T09:29:48;8.75;;;5.53;;
37885;SDS011;23726;52.520;13.434;2022-11-11T09:32:13;7.78;;;5.22;;
37885;SDS011;23726;52.520;13.434;2022-11-11T09:34:39;8.40;;;5.20;;
37885;SDS011;23726;52.520;13.434;2022-11-11T09:37:05;11.32;;;5.05;;
37885;SDS011;23726;52.520;13.434;2022-11-11T09:39:30;7.78;;;5.32;;
37885;SDS011;23726;52.520;13.434;2022-11-11T09:42:03;7.63;;;5.40;;
37885;SDS011;23726;52.520;13.434;2022-11-11T09:50:31;7.55;;;4.85;;
37885;SDS011;23726;52.520;13.434;2022-11-11T09:55:51;6.68;;;4.72;;
37885;SDS011;23726;52.520;13.434;2022-11-11T09:58:27;7.80;;;4.82;;
37885;SDS011;23726;52.520;13.434;2022-11-11T10:00:56;7.22;;;4.85;;
37885;SDS011;23726;52.520;13.434;2022-11-11T10:03:30;7.50;;;5.05;;
37885;SDS011;23726;52.520;13.434;2022-11-11T10:06:05;7.90;;;4.80;;
37885;SDS011;23726;52.520;13.434;2022-11-11T10:08:56;7.28;;;4.95;;
37885;SDS011;23726;52.520;13.434;2022-11-11T10:14:32;6.82;;;4.85;;
37885;SDS011;23726;52.520;13.434;2022-11-11T10:24:45;8.15;;;5.38;;
37885;SDS011;23726;52.520;13.434;2022-11-11T10:27:19;6.63;;;4.82;;
37885;SDS011;23726;52.520;13.434;2022-11-11T10:29:46;7.50;;;4.82;;
37885;SDS011;23726;52.520;13.434;2022-11-11T10:32:26;6.63;;;4.97;;
37885;SDS011;23726;52.520;13.434;2022-11-11T10:37:24;9.70;;;5.60;;
37885;SDS011;23726;52.520;13.434;2022-11-11T10:40:11;8.10;;;5.43;;
37885;SDS011;23726;52.520;13.434;2022-11-11T10:42:46;6.15;;;4.57;;
37885;SDS011;23726;52.520;13.434;2022-11-11T10:45:14;6.22;;;4.72;;
37885;SDS011;23726;52.520;13.434;2022-11-11T10:50:22;7.60;;;4.75;;
37885;SDS011;23726;52.520;13.434;2022-11-11T10:55:54;8.20;;;5.47;;
37885;SDS011;23726;52.520;13.434;2022-11-11T10:58:29;7.43;;;4.95;;
37885;SDS011;23726;52.520;13.434;2022-11-11T11:01:08;8.10;;;4.78;;
37885;SDS011;23726;52.520;13.434;2022-11-11T11:03:48;7.68;;;5.57;;
37885;SDS011;23726;52.520;13.434;2022-11-11T11:06:21;8.40;;;5.05;;
37885;SDS011;23726;52.520;13.434;2022-11-11T11:08:58;8.35;;;5.53;;
37885;SDS011;23726;52.520;13.434;2022-11-11T11:14:28;8.25;;;5.55;;
37885;SDS011;23726;52.520;13.434;2022-11-11T11:16:57;6.95;;;5.13;;
37885;SDS011;23726;52.520;13.434;2022-11-11T11:19:29;8.88;;;5.53;;
37885;SDS011;23726;52.520;13.434;2022-11-11T11:21:56;7.30;;;4.97;;
37885;SDS011;23726;52.520;13.434;2022-11-11T11:24:29;7.18;;;5.10;;
37885;SDS011;23726;52.520;13.434;2022-11-11T11:26:58;7.30;;;5.30;;
37885;SDS011;23726;52.520;13.434;2022-11-11T11:34:53;5.90;;;4.88;;
37885;SDS011;23726;52.520;13.434;2022-11-11T11:37:21;6.38;;;4.45;;
37885;SDS011;23726;52.520;13.434;2022-11-11T11:39:48;6.88;;;4.82;;
37885;SDS011;23726;52.520;13.434;2022-11-11T11:50:41;6.60;;;4.90;;
37885;SDS011;23726;52.520;13.434;2022-11-11T11:53:21;7.72;;;5.47;;
37885;SDS011;23726;52.520;13.434;2022-11-11T11:59:00;7.07;;;4.88;;
37885;SDS011;23726;52.520;13.434;2022-11-11T12:04:11;7.03;;;4.53;;
37885;SDS011;23726;52.520;13.434;2022-11-11T12:07:08;9.55;;;5.28;;
37885;SDS011;23726;52.520;13.434;2022-11-11T12:09:45;7.20;;;4.53;;
37885;SDS011;23726;52.520;13.434;2022-11-11T12:15:16;7.93;;;4.60;;
37885;SDS011;23726;52.520;13.434;2022-11-11T12:18:09;6.67;;;4.47;;
37885;SDS011;23726;52.520;13.434;2022-11-11T12:20:51;8.00;;;5.63;;
37885;SDS011;23726;52.520;13.434;2022-11-11T12:25:50;10.57;;;6.30;;
37885;SDS011;23726;52.520;13.434;2022-11-11T12:29:06;11.73;;;6.78;;
37885;SDS011;23726;52.520;13.434;2022-11-11T12:31:52;15.23;;;8.73;;
37885;SDS011;23726;52.520;13.434;2022-11-11T12:37:30;14.27;;;8.68;;
37885;SDS011;23726;52.520;13.434;2022-11-11T12:46:12;12.50;;;8.23;;
37885;SDS011;23726;52.520;13.434;2022-11-11T12:48:27;13.90;;;8.38;;
37885;SDS011;23726;52.520;13.434;2022-11-11T12:51:04;15.75;;;8.80;;
37885;SDS011;23726;52.520;13.434;2022-11-11T12:53:38;14.05;;;7.55;;
37885;SDS011;23726;52.520;13.434;2022-11-11T12:59:36;11.30;;;7.28;;
37885;SDS011;23726;52.520;13.434;2022-11-11T13:17:24;11.27;;;6.05;;
37885;SDS011;23726;52.520;13.434;2022-11-11T13:19:57;9.88;;;6.25;;
37885;SDS011;23726;52.520;13.434;2022-11-11T13:22:28;11.20;;;6.43;;
37885;SDS011;23726;52.520;13.434;2022-11-11T13:24:56;8.45;;;5.32;;
37885;SDS011;23726;52.520;13.434;2022-11-11T13:27:39;11.43;;;6.00;;
37885;SDS011;23726;52.520;13.434;2022-11-11T13:32:46;10.02;;;5.63;;
37885;SDS011;23726;52.520;13.434;2022-11-11T13:37:52;9.88;;;5.47;;
37885;SDS011;23726;52.520;13.434;2022-11-11T13:40:34;7.85;;;5.50;;
37885;SDS011;23726;52.520;13.434;2022-11-11T13:43:03;6.90;;;5.03;;
37885;SDS011;23726;52.520;13.434;2022-11-11T13:45:42;9.55;;;5.10;;
37885;SDS011;23726;52.520;13.434;2022-11-11T13:48:16;6.47;;;4.70;;
37885;SDS011;23726;52.520;13.434;2022-11-11T13:50:49;7.47;;;5.13;;
37885;SDS011;23726;52.520;13.434;2022-11-11T13:53:25;8.80;;;5.03;;
37885;SDS011;23726;52.520;13.434;2022-11-11T13:56:03;9.25;;;4.55;;
37885;SDS011;23726;52.520;13.434;2022-11-11T13:58:32;8.00;;;5.15;;
37885;SDS011;23726;52.520;13.434;2022-11-11T14:01:02;7.68;;;4.85;;
37885;SDS011;23726;52.520;13.434;2022-11-11T14:13:50;7.88;;;4.88;;
37885;SDS011;23726;52.520;13.434;2022-11-11T14:19:44;8.57;;;5.00;;
37885;SDS011;23726;52.520;13.434;2022-11-11T14:21:51;8.00;;;4.85;;
37885;SDS011;23726;52.520;13.434;2022-11-11T14:24:25;8.38;;;4.82;;
37885;SDS011;23726;52.520;13.434;2022-11-11T14:27:03;7.65;;;4.10;;
37885;SDS011;23726;52.520;13.434;2022-11-11T14:29:48;8.90;;;4.32;;
37885;SDS011;23726;52.520;13.434;2022-11-11T14:35:12;8.40;;;4.63;;
37885;SDS011;23726;52.520;13.434;2022-11-11T14:37:55;9.05;;;4.40;;
37885;SDS011;23726;52.520;13.434;2022-11-11T14:40:38;9.60;;;4.95;;
37885;SDS011;23726;52.520;13.434;2022-11-11T14:43:47;7.38;;;4.22;;
37885;SDS011;23726;52.520;13.434;2022-11-11T14:45:59;7.15;;;4.13;;
37885;SDS011;23726;52.520;13.434;2022-11-11T14:48:49;7.95;;;4.68;;
37885;SDS011;23726;52.520;13.434;2022-11-11T14:54:03;7.43;;;4.47;;
37885;SDS011;23726;52.520;13.434;2022-11-11T14:56:30;6.97;;;4.63;;
37885;SDS011;23726;52.520;13.434;2022-11-11T14:58:58;6.85;;;4.20;;
37885;SDS011;23726;52.520;13.434;2022-11-11T15:01:30;8.63;;;4.55;;
37885;SDS011;23726;52.520;13.434;2022-11-11T15:03:59;7.43;;;4.22;;
37885;SDS011;23726;52.520;13.434;2022-11-11T15:11:44;8.60;;;4.13;;
37885;SDS011;23726;52.520;13.434;2022-11-11T15:22:31;7.68;;;4.57;;
37885;SDS011;23726;52.520;13.434;2022-11-11T15:27:54;9.13;;;5.75;;
37885;SDS011;23726;52.520;13.434;2022-11-11T15:35:57;11.13;;;5.47;;
37885;SDS011;23726;52.520;13.434;2022-11-11T15:38:30;8.25;;;5.22;;
37885;SDS011;23726;52.520;13.434;2022-11-11T15:40:56;9.23;;;5.60;;
37885;SDS011;23726;52.520;13.434;2022-11-11T15:43:25;9.30;;;5.88;;
37885;SDS011;23726;52.520;13.434;2022-11-11T15:45:56;8.23;;;5.40;;
37885;SDS011;23726;52.520;13.434;2022-11-11T15:53:52;7.07;;;4.93;;
37885;SDS011;23726;52.520;13.434;2022-11-11T15:56:29;7.85;;;5.15;;
37885;SDS011;23726;52.520;13.434;2022-11-11T15:58:57;9.93;;;5.18;;
37885;SDS011;23726;52.520;13.434;2022-11-11T16:01:40;8.27;;;4.78;;
37885;SDS011;23726;52.520;13.434;2022-11-11T16:04:07;9.52;;;5.43;;
37885;SDS011;23726;52.520;13.434;2022-11-11T16:06:35;7.30;;;5.10;;
37885;SDS011;23726;52.520;13.434;2022-11-11T16:09:02;9.50;;;5.30;;
37885;SDS011;23726;52.520;13.434;2022-11-11T16:11:28;10.75;;;5.28;;
37885;SDS011;23726;52.520;13.434;2022-11-11T16:16:36;8.07;;;5.63;;
37885;SDS011;23726;52.520;13.434;2022-11-11T16:19:11;9.02;;;5.80;;
37885;SDS011;23726;52.520;13.434;2022-11-11T16:21:44;9.05;;;5.47;;
37885;SDS011;23726;52.520;13.434;2022-11-11T16:24:21;7.07;;;4.55;;
37885;SDS011;23726;52.520;13.434;2022-11-11T16:26:50;7.72;;;5.00;;
37885;SDS011;23726;52.520;13.434;2022-11-11T16:29:16;10.02;;;5.82;;
37885;SDS011;23726;52.520;13.434;2022-11-11T16:31:43;10.10;;;6.30;;
37885;SDS011;23726;52.520;13.434;2022-11-11T16:37:06;8.82;;;6.38;;
37885;SDS011;23726;52.520;13.434;2022-11-11T16:39:33;11.10;;;6.80;;
37885;SDS011;23726;52.520;13.434;2022-11-11T16:42:16;8.65;;;5.85;;
37885;SDS011;23726;52.520;13.434;2022-11-11T16:48:01;8.05;;;6.07;;
37885;SDS011;23726;52.520;13.434;2022-11-11T16:50:06;8.27;;;5.40;;
37885;SDS011;23726;52.520;13.434;2022-11-11T16:52:49;13.35;;;6.60;;
37885;SDS011;23726;52.520;13.434;2022-11-11T16:55:36;8.85;;;5.57;;
37885;SDS011;23726;52.520;13.434;2022-11-11T17:00:40;9.23;;;5.20;;
37885;SDS011;23726;52.520;13.434;2022-11-11T17:03:16;7.72;;;5.25;;
37885;SDS011;23726;52.520;13.434;2022-11-11T17:11:04;7.90;;;5.60;;
37885;SDS011;23726;52.520;13.434;2022-11-11T17:13:35;10.25;;;5.57;;
37885;SDS011;23726;52.520;13.434;2022-11-11T17:16:02;8.10;;;5.25;;
37885;SDS011;23726;52.520;13.434;2022-11-11T17:18:37;9.77;;;5.90;;
37885;SDS011;23726;52.520;13.434;2022-11-11T17:21:06;9.50;;;5.47;;
37885;SDS011;23726;52.520;13.434;2022-11-11T17:23:33;9.30;;;6.25;;
37885;SDS011;23726;52.520;13.434;2022-11-11T17:26:00;9.02;;;5.82;;
37885;SDS011;23726;52.520;13.434;2022-11-11T17:28:26;9.88;;;6.13;;
37885;SDS011;23726;52.520;13.434;2022-11-11T17:30:55;12.13;;;6.70;;
37885;SDS011;23726;52.520;13.434;2022-11-11T17:33:24;9.55;;;6.45;;
37885;SDS011;23726;52.520;13.434;2022-11-11T17:35:51;9.50;;;6.28;;
37885;SDS011;23726;52.520;13.434;2022-11-11T17:38:18;10.95;;;7.13;;
37885;SDS011;23726;52.520;13.434;2022-11-11T17:40:45;11.90;;;7.47;;